sensor_id;sensor_type;location;lat;lon;timestamp;P1;durP1;ratioP1;P2;durP2;ratioP2
48076;SDS011;33854;57.708;12.008;2023-04-24T12:15:19;5.18;;;4.50;;
48076;SDS011;33854;57.708;12.008;2023-04-24T12:17:45;4.25;;;3.85;;
48076;SDS011;33854;57.708;12.008;2023-04-24T12:20:11;4.43;;;3.60;;
48076;SDS011;33854;57.708;12.008;2023-04-24T12:22:47;4.80;;;3.33;;
48076;SDS011;33854;57.708;12.008;2023-04-24T12:25:19;4.25;;;3.10;;
48076;SDS011;33854;57.708;12.008;2023-04-24T12:27:51;5.50;;;4.25;;
48076;SDS011;33854;57.708;12.008;2023-04-24T12:30:39;7.50;;;3.67;;
48076;SDS011;33854;57.708;12.008;2023-04-24T12:33:16;4.15;;;3.28;;
48076;SDS011;33854;57.708;12.008;2023-04-24T12:35:43;4.85;;;3.28;;
48076;SDS011;33854;57.708;12.008;2023-04-24T12:38:09;4.97;;;3.57;;
48076;SDS011;33854;57.708;12.008;2023-04-24T12:40:38;3.80;;;3.38;;
48076;SDS011;33854;57.708;12.008;2023-04-24T12:43:12;3.30;;;2.97;;
48076;SDS011;33854;57.708;12.008;2023-04-24T12:45:41;6.50;;;3.30;;
48076;SDS011;33854;57.708;12.008;2023-04-24T12:48:07;3.40;;;3.10;;
48076;SDS011;33854;57.708;12.008;2023-04-24T12:50:32;3.43;;;2.93;;
48076;SDS011;33854;57.708;12.008;2023-04-24T12:52:58;3.33;;;3.03;;
48076;SDS011;33854;57.708;12.008;2023-04-24T12:57:50;2.73;;;2.53;;
48076;SDS011;33854;57.708;12.008;2023-04-24T13:00:15;4.27;;;3.23;;
48076;SDS011;33854;57.708;12.008;2023-04-24T13:02:41;3.20;;;2.87;;
48076;SDS011;33854;57.708;12.008;2023-04-24T13:05:07;3.43;;;2.90;;
48076;SDS011;33854;57.708;12.008;2023-04-24T13:07:33;2.78;;;2.58;;
48076;SDS011;33854;57.708;12.008;2023-04-24T13:09:59;3.25;;;2.95;;
48076;SDS011;33854;57.708;12.008;2023-04-24T13:12:24;2.93;;;2.73;;
48076;SDS011;33854;57.708;12.008;2023-04-24T13:14:50;2.80;;;2.60;;
48076;SDS011;33854;57.708;12.008;2023-04-24T13:17:16;3.60;;;2.83;;
48076;SDS011;33854;57.708;12.008;2023-04-24T13:19:42;4.47;;;3.00;;
48076;SDS011;33854;57.708;12.008;2023-04-24T13:22:11;3.38;;;3.08;;
48076;SDS011;33854;57.708;12.008;2023-04-24T13:24:38;4.05;;;3.05;;
48076;SDS011;33854;57.708;12.008;2023-04-24T13:27:05;3.05;;;2.75;;
48076;SDS011;33854;57.708;12.008;2023-04-24T13:29:31;3.30;;;2.85;;
48076;SDS011;33854;57.708;12.008;2023-04-24T13:31:57;3.57;;;2.80;;
48076;SDS011;33854;57.708;12.008;2023-04-24T13:34:23;3.47;;;2.90;;
48076;SDS011;33854;57.708;12.008;2023-04-24T13:36:50;3.25;;;2.78;;
48076;SDS011;33854;57.708;12.008;2023-04-24T13:39:16;4.07;;;2.75;;
48076;SDS011;33854;57.708;12.008;2023-04-24T13:41:42;5.20;;;2.60;;
48076;SDS011;33854;57.708;12.008;2023-04-24T13:44:07;2.80;;;2.60;;
48076;SDS011;33854;57.708;12.008;2023-04-24T13:46:33;2.80;;;2.60;;
48076;SDS011;33854;57.708;12.008;2023-04-24T13:48:59;5.77;;;2.60;;
48076;SDS011;33854;57.708;12.008;2023-04-24T13:51:27;3.50;;;2.50;;
48076;SDS011;33854;57.708;12.008;2023-04-24T13:53:53;2.83;;;2.63;;
48076;SDS011;33854;57.708;12.008;2023-04-24T13:56:19;3.40;;;2.70;;
48076;SDS011;33854;57.708;12.008;2023-04-24T13:58:45;4.00;;;2.88;;
48076;SDS011;33854;57.708;12.008;2023-04-24T14:01:10;4.07;;;2.53;;
48076;SDS011;33854;57.708;12.008;2023-04-24T14:03:37;3.10;;;2.80;;
48076;SDS011;33854;57.708;12.008;2023-04-24T14:06:02;3.20;;;2.95;;
48076;SDS011;33854;57.708;12.008;2023-04-24T14:08:28;4.43;;;2.67;;
48076;SDS011;33854;57.708;12.008;2023-04-24T14:10:53;3.67;;;2.70;;
48076;SDS011;33854;57.708;12.008;2023-04-24T14:13:19;4.20;;;2.87;;
48076;SDS011;33854;57.708;12.008;2023-04-24T14:15:45;3.42;;;3.22;;
48076;SDS011;33854;57.708;12.008;2023-04-24T14:18:10;5.77;;;3.23;;
48076;SDS011;33854;57.708;12.008;2023-04-24T14:20:36;5.87;;;3.70;;
48076;SDS011;33854;57.708;12.008;2023-04-24T14:23:01;4.97;;;4.00;;
48076;SDS011;33854;57.708;12.008;2023-04-24T14:25:27;5.83;;;4.77;;
48076;SDS011;33854;57.708;12.008;2023-04-24T14:27:52;10.20;;;5.73;;
48076;SDS011;33854;57.708;12.008;2023-04-24T14:30:18;9.00;;;6.27;;
48076;SDS011;33854;57.708;12.008;2023-04-24T14:32:44;5.85;;;5.25;;
48076;SDS011;33854;57.708;12.008;2023-04-24T14:35:09;7.63;;;6.10;;
48076;SDS011;33854;57.708;12.008;2023-04-24T14:37:35;8.63;;;6.23;;
48076;SDS011;33854;57.708;12.008;2023-04-24T14:40:01;8.15;;;5.30;;
48076;SDS011;33854;57.708;12.008;2023-04-24T14:42:29;8.63;;;6.15;;
48076;SDS011;33854;57.708;12.008;2023-04-24T14:44:54;8.60;;;6.17;;
48076;SDS011;33854;57.708;12.008;2023-04-24T14:47:20;8.13;;;5.90;;
48076;SDS011;33854;57.708;12.008;2023-04-24T14:49:48;7.72;;;6.25;;
48076;SDS011;33854;57.708;12.008;2023-04-24T14:52:14;9.23;;;6.43;;
48076;SDS011;33854;57.708;12.008;2023-04-24T14:54:40;6.57;;;5.85;;
48076;SDS011;33854;57.708;12.008;2023-04-24T14:57:06;7.53;;;5.77;;
48076;SDS011;33854;57.708;12.008;2023-04-24T14:59:32;8.23;;;5.05;;
48076;SDS011;33854;57.708;12.008;2023-04-24T15:01:58;20.43;;;6.50;;
48076;SDS011;33854;57.708;12.008;2023-04-24T15:04:23;7.67;;;5.53;;
48076;SDS011;33854;57.708;12.008;2023-04-24T15:06:52;6.72;;;4.88;;
48076;SDS011;33854;57.708;12.008;2023-04-24T15:09:19;6.55;;;5.32;;
48076;SDS011;33854;57.708;12.008;2023-04-24T15:11:49;7.03;;;5.68;;
48076;SDS011;33854;57.708;12.008;2023-04-24T15:14:15;9.02;;;5.32;;
48076;SDS011;33854;57.708;12.008;2023-04-24T15:16:41;5.57;;;4.80;;
48076;SDS011;33854;57.708;12.008;2023-04-24T15:19:07;6.57;;;5.87;;
48076;SDS011;33854;57.708;12.008;2023-04-24T15:21:32;8.03;;;5.47;;
48076;SDS011;33854;57.708;12.008;2023-04-24T15:23:58;6.13;;;5.40;;
48076;SDS011;33854;57.708;12.008;2023-04-24T15:26:24;8.53;;;6.07;;
48076;SDS011;33854;57.708;12.008;2023-04-24T15:28:50;7.88;;;6.20;;
48076;SDS011;33854;57.708;12.008;2023-04-24T15:31:16;8.05;;;6.13;;
48076;SDS011;33854;57.708;12.008;2023-04-24T15:33:42;6.00;;;4.55;;
48076;SDS011;33854;57.708;12.008;2023-04-24T15:36:08;7.00;;;6.27;;
48076;SDS011;33854;57.708;12.008;2023-04-24T15:38:34;6.68;;;5.60;;
48076;SDS011;33854;57.708;12.008;2023-04-24T15:41:00;6.50;;;5.67;;
48076;SDS011;33854;57.708;12.008;2023-04-24T15:43:26;7.93;;;5.47;;
48076;SDS011;33854;57.708;12.008;2023-04-24T15:45:51;5.33;;;4.80;;
48076;SDS011;33854;57.708;12.008;2023-04-24T15:48:18;8.60;;;5.60;;
48076;SDS011;33854;57.708;12.008;2023-04-24T15:50:43;6.22;;;5.60;;
48076;SDS011;33854;57.708;12.008;2023-04-24T15:53:09;6.90;;;5.37;;
48076;SDS011;33854;57.708;12.008;2023-04-24T15:55:34;5.80;;;5.23;;
48076;SDS011;33854;57.708;12.008;2023-04-24T15:58:01;7.97;;;6.00;;
48076;SDS011;33854;57.708;12.008;2023-04-24T16:00:26;8.27;;;5.23;;
48076;SDS011;33854;57.708;12.008;2023-04-24T16:02:58;10.80;;;5.97;;
48076;SDS011;33854;57.708;12.008;2023-04-24T16:07:49;7.67;;;5.27;;
48076;SDS011;33854;57.708;12.008;2023-04-24T16:10:15;8.23;;;5.60;;
48076;SDS011;33854;57.708;12.008;2023-04-24T16:12:41;5.20;;;4.70;;
48076;SDS011;33854;57.708;12.008;2023-04-24T16:15:06;8.27;;;5.53;;
48076;SDS011;33854;57.708;12.008;2023-04-24T16:17:32;5.68;;;5.18;;
48076;SDS011;33854;57.708;12.008;2023-04-24T16:19:58;6.73;;;4.83;;
48076;SDS011;33854;57.708;12.008;2023-04-24T16:22:23;5.83;;;5.10;;
48076;SDS011;33854;57.708;12.008;2023-04-24T16:24:49;7.87;;;5.20;;
48076;SDS011;33854;57.708;12.008;2023-04-24T16:27:14;7.30;;;5.17;;
48076;SDS011;33854;57.708;12.008;2023-04-24T16:29:39;6.40;;;4.80;;
48076;SDS011;33854;57.708;12.008;2023-04-24T16:32:05;6.43;;;4.23;;
48076;SDS011;33854;57.708;12.008;2023-04-24T16:34:31;9.03;;;5.30;;
48076;SDS011;33854;57.708;12.008;2023-04-24T16:36:56;5.27;;;4.50;;
48076;SDS011;33854;57.708;12.008;2023-04-24T16:39:22;7.90;;;4.60;;
48076;SDS011;33854;57.708;12.008;2023-04-24T16:41:47;6.60;;;4.60;;
48076;SDS011;33854;57.708;12.008;2023-04-24T16:44:13;9.82;;;5.47;;
48076;SDS011;33854;57.708;12.008;2023-04-24T16:46:39;4.93;;;4.43;;
48076;SDS011;33854;57.708;12.008;2023-04-24T16:49:05;6.00;;;5.27;;
48076;SDS011;33854;57.708;12.008;2023-04-24T16:51:30;7.20;;;5.27;;
48076;SDS011;33854;57.708;12.008;2023-04-24T16:56:23;7.70;;;4.83;;
48076;SDS011;33854;57.708;12.008;2023-04-24T16:58:48;7.03;;;4.97;;
48076;SDS011;33854;57.708;12.008;2023-04-24T17:01:14;8.97;;;5.17;;
48076;SDS011;33854;57.708;12.008;2023-04-24T17:03:39;7.50;;;5.80;;
48076;SDS011;33854;57.708;12.008;2023-04-24T17:06:05;6.17;;;5.30;;
48076;SDS011;33854;57.708;12.008;2023-04-24T17:08:31;8.25;;;5.95;;
48076;SDS011;33854;57.708;12.008;2023-04-24T17:10:56;6.43;;;5.50;;
48076;SDS011;33854;57.708;12.008;2023-04-24T17:13:22;6.10;;;5.17;;
48076;SDS011;33854;57.708;12.008;2023-04-24T17:15:48;7.00;;;5.43;;
48076;SDS011;33854;57.708;12.008;2023-04-24T17:18:13;9.87;;;6.00;;
48076;SDS011;33854;57.708;12.008;2023-04-24T17:20:39;6.37;;;4.87;;
48076;SDS011;33854;57.708;12.008;2023-04-24T17:23:04;6.47;;;5.13;;
48076;SDS011;33854;57.708;12.008;2023-04-24T17:25:29;5.87;;;5.30;;
48076;SDS011;33854;57.708;12.008;2023-04-24T17:27:55;6.60;;;5.83;;
48076;SDS011;33854;57.708;12.008;2023-04-24T17:30:21;6.60;;;5.67;;
48076;SDS011;33854;57.708;12.008;2023-04-24T17:32:46;6.97;;;6.27;;
48076;SDS011;33854;57.708;12.008;2023-04-24T17:35:12;6.60;;;5.50;;
48076;SDS011;33854;57.708;12.008;2023-04-24T17:37:37;7.60;;;5.77;;
48076;SDS011;33854;57.708;12.008;2023-04-24T17:40:03;6.53;;;5.57;;
48076;SDS011;33854;57.708;12.008;2023-04-24T17:42:29;6.05;;;5.43;;
48076;SDS011;33854;57.708;12.008;2023-04-24T17:44:55;9.00;;;5.37;;
48076;SDS011;33854;57.708;12.008;2023-04-24T17:47:20;8.10;;;5.83;;
48076;SDS011;33854;57.708;12.008;2023-04-24T17:49:46;9.70;;;5.75;;
48076;SDS011;33854;57.708;12.008;2023-04-24T17:52:12;8.57;;;6.77;;
48076;SDS011;33854;57.708;12.008;2023-04-24T17:54:39;7.45;;;5.80;;
48076;SDS011;33854;57.708;12.008;2023-04-24T17:57:04;6.97;;;5.97;;
48076;SDS011;33854;57.708;12.008;2023-04-24T17:59:30;9.10;;;6.10;;
48076;SDS011;33854;57.708;12.008;2023-04-24T18:01:55;7.63;;;5.90;;
48076;SDS011;33854;57.708;12.008;2023-04-24T18:06:47;15.43;;;6.53;;
48076;SDS011;33854;57.708;12.008;2023-04-24T18:09:13;8.20;;;7.20;;
48076;SDS011;33854;57.708;12.008;2023-04-24T18:11:42;8.07;;;6.72;;
48076;SDS011;33854;57.708;12.008;2023-04-24T18:14:08;8.70;;;5.30;;
48076;SDS011;33854;57.708;12.008;2023-04-24T18:16:34;8.20;;;6.67;;
48076;SDS011;33854;57.708;12.008;2023-04-24T18:18:59;9.43;;;6.33;;
48076;SDS011;33854;57.708;12.008;2023-04-24T18:21:25;7.57;;;6.30;;
48076;SDS011;33854;57.708;12.008;2023-04-24T18:23:50;8.83;;;6.40;;
48076;SDS011;33854;57.708;12.008;2023-04-24T18:26:16;8.90;;;6.20;;
48076;SDS011;33854;57.708;12.008;2023-04-24T18:28:42;6.70;;;5.88;;
48076;SDS011;33854;57.708;12.008;2023-04-24T18:31:08;7.87;;;5.73;;
48076;SDS011;33854;57.708;12.008;2023-04-24T18:33:34;7.93;;;6.13;;
48076;SDS011;33854;57.708;12.008;2023-04-24T18:35:59;7.53;;;5.83;;
48076;SDS011;33854;57.708;12.008;2023-04-24T18:38:26;7.20;;;5.65;;
48076;SDS011;33854;57.708;12.008;2023-04-24T18:40:52;8.10;;;6.00;;
48076;SDS011;33854;57.708;12.008;2023-04-24T18:43:17;6.40;;;5.80;;
48076;SDS011;33854;57.708;12.008;2023-04-24T18:45:43;7.63;;;5.77;;
48076;SDS011;33854;57.708;12.008;2023-04-24T18:48:08;6.50;;;5.90;;
48076;SDS011;33854;57.708;12.008;2023-04-24T18:50:34;8.53;;;6.53;;
48076;SDS011;33854;57.708;12.008;2023-04-24T18:52:59;7.40;;;5.63;;
48076;SDS011;33854;57.708;12.008;2023-04-24T18:55:25;6.33;;;5.70;;
48076;SDS011;33854;57.708;12.008;2023-04-24T18:57:50;7.00;;;6.30;;
48076;SDS011;33854;57.708;12.008;2023-04-24T19:00:16;8.33;;;5.93;;
48076;SDS011;33854;57.708;12.008;2023-04-24T19:02:42;8.65;;;6.18;;
48076;SDS011;33854;57.708;12.008;2023-04-24T19:05:08;8.93;;;6.00;;
48076;SDS011;33854;57.708;12.008;2023-04-24T19:07:35;7.43;;;6.60;;
48076;SDS011;33854;57.708;12.008;2023-04-24T19:10:01;7.47;;;6.47;;
48076;SDS011;33854;57.708;12.008;2023-04-24T19:12:26;8.67;;;6.47;;
48076;SDS011;33854;57.708;12.008;2023-04-24T19:14:51;7.53;;;6.40;;
48076;SDS011;33854;57.708;12.008;2023-04-24T19:17:19;7.90;;;6.38;;
48076;SDS011;33854;57.708;12.008;2023-04-24T19:19:48;9.20;;;6.18;;
48076;SDS011;33854;57.708;12.008;2023-04-24T19:22:14;7.10;;;6.10;;
48076;SDS011;33854;57.708;12.008;2023-04-24T19:24:39;7.37;;;6.50;;
48076;SDS011;33854;57.708;12.008;2023-04-24T19:27:05;7.27;;;6.07;;
48076;SDS011;33854;57.708;12.008;2023-04-24T19:29:30;8.03;;;6.77;;
48076;SDS011;33854;57.708;12.008;2023-04-24T19:31:56;7.73;;;6.00;;
48076;SDS011;33854;57.708;12.008;2023-04-24T19:34:22;7.82;;;6.63;;
48076;SDS011;33854;57.708;12.008;2023-04-24T19:36:48;6.93;;;6.22;;
48076;SDS011;33854;57.708;12.008;2023-04-24T19:39:14;7.13;;;6.43;;
48076;SDS011;33854;57.708;12.008;2023-04-24T19:41:40;7.70;;;6.60;;
48076;SDS011;33854;57.708;12.008;2023-04-24T19:44:05;10.33;;;6.67;;
48076;SDS011;33854;57.708;12.008;2023-04-24T19:46:31;9.17;;;6.60;;
48076;SDS011;33854;57.708;12.008;2023-04-24T19:48:57;6.67;;;6.00;;
48076;SDS011;33854;57.708;12.008;2023-04-24T19:51:22;19.17;;;12.63;;
48076;SDS011;33854;57.708;12.008;2023-04-24T19:53:48;8.40;;;7.23;;
48076;SDS011;33854;57.708;12.008;2023-04-24T19:56:13;6.07;;;5.47;;
48076;SDS011;33854;57.708;12.008;2023-04-24T19:58:39;7.43;;;5.43;;
48076;SDS011;33854;57.708;12.008;2023-04-24T20:01:04;8.67;;;5.57;;
48076;SDS011;33854;57.708;12.008;2023-04-24T20:03:30;6.10;;;5.43;;
48076;SDS011;33854;57.708;12.008;2023-04-24T20:05:56;6.47;;;5.30;;
48076;SDS011;33854;57.708;12.008;2023-04-24T20:08:21;6.87;;;5.40;;
48076;SDS011;33854;57.708;12.008;2023-04-24T20:10:46;6.27;;;5.57;;
48076;SDS011;33854;57.708;12.008;2023-04-24T20:13:12;7.63;;;6.00;;
48076;SDS011;33854;57.708;12.008;2023-04-24T20:15:37;6.10;;;5.47;;
48076;SDS011;33854;57.708;12.008;2023-04-24T20:18:03;6.67;;;5.93;;
48076;SDS011;33854;57.708;12.008;2023-04-24T20:20:28;7.30;;;5.73;;
48076;SDS011;33854;57.708;12.008;2023-04-24T20:22:54;7.33;;;6.53;;
48076;SDS011;33854;57.708;12.008;2023-04-24T20:25:19;7.50;;;6.80;;
48076;SDS011;33854;57.708;12.008;2023-04-24T20:27:45;8.30;;;6.50;;
48076;SDS011;33854;57.708;12.008;2023-04-24T20:30:10;11.87;;;7.33;;
48076;SDS011;33854;57.708;12.008;2023-04-24T20:32:42;9.70;;;6.72;;
48076;SDS011;33854;57.708;12.008;2023-04-24T20:35:09;8.30;;;7.50;;
48076;SDS011;33854;57.708;12.008;2023-04-24T20:37:35;7.80;;;7.00;;
48076;SDS011;33854;57.708;12.008;2023-04-24T20:40:01;8.53;;;6.70;;
48076;SDS011;33854;57.708;12.008;2023-04-24T20:42:30;7.28;;;6.43;;
48076;SDS011;33854;57.708;12.008;2023-04-24T20:44:56;8.20;;;6.90;;
48076;SDS011;33854;57.708;12.008;2023-04-24T20:47:22;9.45;;;7.22;;
48076;SDS011;33854;57.708;12.008;2023-04-24T20:49:47;8.30;;;7.00;;
48076;SDS011;33854;57.708;12.008;2023-04-24T20:52:13;7.30;;;6.53;;
48076;SDS011;33854;57.708;12.008;2023-04-24T20:54:38;7.90;;;6.80;;
48076;SDS011;33854;57.708;12.008;2023-04-24T20:57:06;8.18;;;6.95;;
48076;SDS011;33854;57.708;12.008;2023-04-24T20:59:32;6.75;;;6.15;;
48076;SDS011;33854;57.708;12.008;2023-04-24T21:01:57;8.97;;;7.27;;
48076;SDS011;33854;57.708;12.008;2023-04-24T21:04:23;7.13;;;6.43;;
48076;SDS011;33854;57.708;12.008;2023-04-24T21:06:48;9.67;;;6.90;;
48076;SDS011;33854;57.708;12.008;2023-04-24T21:09:14;7.43;;;6.37;;
48076;SDS011;33854;57.708;12.008;2023-04-24T21:11:40;7.88;;;6.38;;
48076;SDS011;33854;57.708;12.008;2023-04-24T21:14:06;7.47;;;6.23;;
48076;SDS011;33854;57.708;12.008;2023-04-24T21:16:32;6.67;;;6.03;;
48076;SDS011;33854;57.708;12.008;2023-04-24T21:18:57;6.37;;;5.63;;
48076;SDS011;33854;57.708;12.008;2023-04-24T21:21:23;5.43;;;4.93;;
48076;SDS011;33854;57.708;12.008;2023-04-24T21:23:49;5.20;;;4.70;;
48076;SDS011;33854;57.708;12.008;2023-04-24T21:26:14;5.93;;;5.33;;
48076;SDS011;33854;57.708;12.008;2023-04-24T21:28:40;5.15;;;4.65;;
48076;SDS011;33854;57.708;12.008;2023-04-24T21:31:06;7.07;;;5.13;;
48076;SDS011;33854;57.708;12.008;2023-04-24T21:33:32;4.40;;;4.10;;
48076;SDS011;33854;57.708;12.008;2023-04-24T21:35:57;5.70;;;4.37;;
48076;SDS011;33854;57.708;12.008;2023-04-24T21:38:23;4.40;;;3.90;;
48076;SDS011;33854;57.708;12.008;2023-04-24T21:40:49;5.90;;;4.00;;
48076;SDS011;33854;57.708;12.008;2023-04-24T21:43:16;6.18;;;4.35;;
48076;SDS011;33854;57.708;12.008;2023-04-24T21:45:42;5.20;;;4.25;;
48076;SDS011;33854;57.708;12.008;2023-04-24T21:48:08;4.40;;;4.00;;
48076;SDS011;33854;57.708;12.008;2023-04-24T21:50:33;4.07;;;3.77;;
48076;SDS011;33854;57.708;12.008;2023-04-24T21:52:58;4.63;;;4.23;;
48076;SDS011;33854;57.708;12.008;2023-04-24T21:55:24;3.77;;;3.43;;
48076;SDS011;33854;57.708;12.008;2023-04-24T21:57:50;4.45;;;3.70;;
48076;SDS011;33854;57.708;12.008;2023-04-24T22:00:16;5.17;;;3.77;;
48076;SDS011;33854;57.708;12.008;2023-04-24T22:02:41;5.90;;;3.83;;
48076;SDS011;33854;57.708;12.008;2023-04-24T22:05:07;4.20;;;3.70;;
48076;SDS011;33854;57.708;12.008;2023-04-24T22:07:39;4.03;;;3.22;;
48076;SDS011;33854;57.708;12.008;2023-04-24T22:12:31;3.90;;;3.60;;
48076;SDS011;33854;57.708;12.008;2023-04-24T22:14:57;4.10;;;3.73;;
48076;SDS011;33854;57.708;12.008;2023-04-24T22:17:24;4.50;;;3.63;;
48076;SDS011;33854;57.708;12.008;2023-04-24T22:19:50;4.03;;;3.38;;
48076;SDS011;33854;57.708;12.008;2023-04-24T22:22:16;4.27;;;3.87;;
48076;SDS011;33854;57.708;12.008;2023-04-24T22:24:41;3.60;;;3.30;;
48076;SDS011;33854;57.708;12.008;2023-04-24T22:27:07;4.80;;;3.23;;
48076;SDS011;33854;57.708;12.008;2023-04-24T22:29:32;5.63;;;3.50;;
48076;SDS011;33854;57.708;12.008;2023-04-24T22:31:58;4.00;;;3.60;;
48076;SDS011;33854;57.708;12.008;2023-04-24T22:34:23;4.33;;;3.60;;
48076;SDS011;33854;57.708;12.008;2023-04-24T22:36:49;6.93;;;3.40;;
48076;SDS011;33854;57.708;12.008;2023-04-24T22:39:14;4.43;;;3.47;;
48076;SDS011;33854;57.708;12.008;2023-04-24T22:41:41;5.05;;;4.00;;
48076;SDS011;33854;57.708;12.008;2023-04-24T22:44:07;4.40;;;3.90;;
48076;SDS011;33854;57.708;12.008;2023-04-24T22:46:33;2.92;;;2.72;;
48076;SDS011;33854;57.708;12.008;2023-04-24T22:48:59;3.87;;;3.57;;
48076;SDS011;33854;57.708;12.008;2023-04-24T22:51:25;4.72;;;3.90;;
48076;SDS011;33854;57.708;12.008;2023-04-24T22:53:50;3.60;;;3.30;;
48076;SDS011;33854;57.708;12.008;2023-04-24T22:56:16;5.27;;;4.13;;
48076;SDS011;33854;57.708;12.008;2023-04-24T22:58:41;3.47;;;3.13;;
48076;SDS011;33854;57.708;12.008;2023-04-24T23:01:07;3.53;;;3.23;;
48076;SDS011;33854;57.708;12.008;2023-04-24T23:03:33;4.23;;;3.40;;
48076;SDS011;33854;57.708;12.008;2023-04-24T23:05:59;4.10;;;3.70;;
48076;SDS011;33854;57.708;12.008;2023-04-24T23:08:25;3.60;;;3.20;;
48076;SDS011;33854;57.708;12.008;2023-04-24T23:10:50;3.80;;;3.50;;
48076;SDS011;33854;57.708;12.008;2023-04-24T23:13:17;5.18;;;3.72;;
48076;SDS011;33854;57.708;12.008;2023-04-24T23:15:43;4.03;;;3.60;;
48076;SDS011;33854;57.708;12.008;2023-04-24T23:18:08;4.07;;;3.70;;
48076;SDS011;33854;57.708;12.008;2023-04-24T23:20:34;7.00;;;4.00;;
48076;SDS011;33854;57.708;12.008;2023-04-24T23:22:59;6.30;;;4.57;;
48076;SDS011;33854;57.708;12.008;2023-04-24T23:25:25;4.20;;;3.80;;
48076;SDS011;33854;57.708;12.008;2023-04-24T23:27:51;6.03;;;3.87;;
48076;SDS011;33854;57.708;12.008;2023-04-24T23:30:16;7.17;;;4.20;;
48076;SDS011;33854;57.708;12.008;2023-04-24T23:32:41;6.20;;;3.90;;
48076;SDS011;33854;57.708;12.008;2023-04-24T23:35:08;7.05;;;4.35;;
48076;SDS011;33854;57.708;12.008;2023-04-24T23:37:34;5.32;;;4.30;;
48076;SDS011;33854;57.708;12.008;2023-04-24T23:40:02;6.50;;;4.88;;
48076;SDS011;33854;57.708;12.008;2023-04-24T23:42:30;5.60;;;5.10;;
48076;SDS011;33854;57.708;12.008;2023-04-24T23:44:55;7.33;;;6.63;;
48076;SDS011;33854;57.708;12.008;2023-04-24T23:47:20;7.87;;;7.07;;
48076;SDS011;33854;57.708;12.008;2023-04-24T23:49:46;12.00;;;10.03;;
48076;SDS011;33854;57.708;12.008;2023-04-24T23:52:11;14.13;;;11.13;;
48076;SDS011;33854;57.708;12.008;2023-04-24T23:54:37;14.37;;;11.13;;
48076;SDS011;33854;57.708;12.008;2023-04-24T23:57:02;16.13;;;11.47;;
48076;SDS011;33854;57.708;12.008;2023-04-24T23:59:28;14.13;;;10.80;;
